sensor_id;sensor_type;location;lat;lon;timestamp;temperature;humidity
1678;DHT22;6034;46.864;15.216;2023-05-10T04:51:18;11.70;99.90
1678;DHT22;6034;46.864;15.216;2023-05-10T04:53:46;11.90;99.90
1678;DHT22;6034;46.864;15.216;2023-05-10T04:56:17;12.10;99.90
1678;DHT22;6034;46.864;15.216;2023-05-10T04:58:44;12.20;99.90
1678;DHT22;6034;46.864;15.216;2023-05-10T05:01:11;12.10;99.90
1678;DHT22;6034;46.864;15.216;2023-05-10T05:03:38;11.80;99.90
1678;DHT22;6034;46.864;15.216;2023-05-10T05:06:05;11.80;99.90
1678;DHT22;6034;46.864;15.216;2023-05-10T05:08:34;11.90;99.90
1678;DHT22;6034;46.864;15.216;2023-05-10T05:11:01;11.90;99.90
1678;DHT22;6034;46.864;15.216;2023-05-10T05:13:28;11.70;99.90
1678;DHT22;6034;46.864;15.216;2023-05-10T05:15:55;11.80;99.90
1678;DHT22;6034;46.864;15.216;2023-05-10T05:18:22;11.80;99.90
1678;DHT22;6034;46.864;15.216;2023-05-10T05:20:49;11.90;99.90
1678;DHT22;6034;46.864;15.216;2023-05-10T05:23:16;12.10;99.90
1678;DHT22;6034;46.864;15.216;2023-05-10T05:25:45;12.00;99.90
1678;DHT22;6034;46.864;15.216;2023-05-10T05:28:12;12.00;99.90
1678;DHT22;6034;46.864;15.216;2023-05-10T05:30:39;12.00;99.90
1678;DHT22;6034;46.864;15.216;2023-05-10T05:33:06;12.20;99.90
1678;DHT22;6034;46.864;15.216;2023-05-10T05:35:33;12.30;99.90
1678;DHT22;6034;46.864;15.216;2023-05-10T05:38:00;12.40;99.90
1678;DHT22;6034;46.864;15.216;2023-05-10T05:40:27;12.20;99.90
1678;DHT22;6034;46.864;15.216;2023-05-10T05:42:55;12.00;99.90
1678;DHT22;6034;46.864;15.216;2023-05-10T05:45:22;11.90;99.90
1678;DHT22;6034;46.864;15.216;2023-05-10T05:47:49;11.70;99.90
1678;DHT22;6034;46.864;15.216;2023-05-10T05:50:16;11.60;99.90
1678;DHT22;6034;46.864;15.216;2023-05-10T05:52:43;11.60;99.90
1678;DHT22;6034;46.864;15.216;2023-05-10T05:55:10;11.40;99.90
1678;DHT22;6034;46.864;15.216;2023-05-10T05:57:38;11.50;99.90
1678;DHT22;6034;46.864;15.216;2023-05-10T06:00:09;11.80;99.90
1678;DHT22;6034;46.864;15.216;2023-05-10T06:02:39;12.00;99.90
1678;DHT22;6034;46.864;15.216;2023-05-10T06:05:07;12.00;99.90
1678;DHT22;6034;46.864;15.216;2023-05-10T06:07:34;12.20;99.90
1678;DHT22;6034;46.864;15.216;2023-05-10T06:10:01;11.90;99.90
1678;DHT22;6034;46.864;15.216;2023-05-10T06:12:28;12.00;99.90
1678;DHT22;6034;46.864;15.216;2023-05-10T06:14:55;11.90;99.90
1678;DHT22;6034;46.864;15.216;2023-05-10T06:17:24;11.80;99.90
1678;DHT22;6034;46.864;15.216;2023-05-10T06:19:51;12.00;99.90
1678;DHT22;6034;46.864;15.216;2023-05-10T06:22:18;12.00;99.90
1678;DHT22;6034;46.864;15.216;2023-05-10T06:24:48;11.60;99.90
1678;DHT22;6034;46.864;15.216;2023-05-10T06:27:16;11.50;99.90
1678;DHT22;6034;46.864;15.216;2023-05-10T06:29:43;11.20;99.90
1678;DHT22;6034;46.864;15.216;2023-05-10T06:32:10;11.20;99.90
1678;DHT22;6034;46.864;15.216;2023-05-10T06:34:38;11.30;99.90
1678;DHT22;6034;46.864;15.216;2023-05-10T06:37:05;11.60;99.90
1678;DHT22;6034;46.864;15.216;2023-05-10T06:39:32;11.80;99.90
1678;DHT22;6034;46.864;15.216;2023-05-10T06:41:59;11.80;99.90
1678;DHT22;6034;46.864;15.216;2023-05-10T06:44:28;11.40;99.90
1678;DHT22;6034;46.864;15.216;2023-05-10T06:46:55;11.20;99.90
1678;DHT22;6034;46.864;15.216;2023-05-10T06:49:21;11.50;99.90
1678;DHT22;6034;46.864;15.216;2023-05-10T06:51:50;11.90;99.90
1678;DHT22;6034;46.864;15.216;2023-05-10T06:54:17;11.20;99.90
1678;DHT22;6034;46.864;15.216;2023-05-10T06:56:44;11.60;99.90
1678;DHT22;6034;46.864;15.216;2023-05-10T06:59:12;12.00;99.90
1678;DHT22;6034;46.864;15.216;2023-05-10T07:01:40;12.00;99.90
1678;DHT22;6034;46.864;15.216;2023-05-10T07:04:07;12.10;99.90
1678;DHT22;6034;46.864;15.216;2023-05-10T07:06:34;12.20;99.90
1678;DHT22;6034;46.864;15.216;2023-05-10T07:09:02;12.30;99.90
1678;DHT22;6034;46.864;15.216;2023-05-10T07:11:29;12.30;99.90
1678;DHT22;6034;46.864;15.216;2023-05-10T07:13:56;12.40;99.90
1678;DHT22;6034;46.864;15.216;2023-05-10T07:16:23;12.50;99.90
1678;DHT22;6034;46.864;15.216;2023-05-10T07:18:50;12.50;99.90
1678;DHT22;6034;46.864;15.216;2023-05-10T07:21:18;12.50;99.90
1678;DHT22;6034;46.864;15.216;2023-05-10T07:23:45;12.50;99.90
1678;DHT22;6034;46.864;15.216;2023-05-10T07:26:14;12.60;99.90
1678;DHT22;6034;46.864;15.216;2023-05-10T07:28:41;12.70;99.90
1678;DHT22;6034;46.864;15.216;2023-05-10T07:31:08;12.80;99.90
1678;DHT22;6034;46.864;15.216;2023-05-10T07:33:35;12.80;99.90
1678;DHT22;6034;46.864;15.216;2023-05-10T07:36:01;12.90;99.90
1678;DHT22;6034;46.864;15.216;2023-05-10T07:38:29;12.70;99.90
1678;DHT22;6034;46.864;15.216;2023-05-10T07:40:55;12.80;99.90
1678;DHT22;6034;46.864;15.216;2023-05-10T07:43:24;12.90;99.90
1678;DHT22;6034;46.864;15.216;2023-05-10T07:45:51;12.70;99.90
1678;DHT22;6034;46.864;15.216;2023-05-10T07:48:17;12.70;99.90
1678;DHT22;6034;46.864;15.216;2023-05-10T07:50:44;12.80;99.90
1678;DHT22;6034;46.864;15.216;2023-05-10T07:53:11;12.80;99.90
1678;DHT22;6034;46.864;15.216;2023-05-10T07:55:38;12.90;99.90
1678;DHT22;6034;46.864;15.216;2023-05-10T07:58:05;12.90;99.90
1678;DHT22;6034;46.864;15.216;2023-05-10T08:00:33;12.90;99.90
1678;DHT22;6034;46.864;15.216;2023-05-10T08:03:00;12.90;99.90
1678;DHT22;6034;46.864;15.216;2023-05-10T08:05:27;12.90;99.90
1678;DHT22;6034;46.864;15.216;2023-05-10T08:07:54;12.90;99.90
1678;DHT22;6034;46.864;15.216;2023-05-10T08:10:21;12.90;99.90
1678;DHT22;6034;46.864;15.216;2023-05-10T08:12:48;12.70;99.90
1678;DHT22;6034;46.864;15.216;2023-05-10T08:15:15;12.70;99.90
1678;DHT22;6034;46.864;15.216;2023-05-10T08:17:43;12.60;99.90
1678;DHT22;6034;46.864;15.216;2023-05-10T08:20:10;12.80;99.90
1678;DHT22;6034;46.864;15.216;2023-05-10T08:22:38;12.80;99.90
1678;DHT22;6034;46.864;15.216;2023-05-10T08:25:05;13.00;99.90
1678;DHT22;6034;46.864;15.216;2023-05-10T08:27:32;13.20;99.90
1678;DHT22;6034;46.864;15.216;2023-05-10T08:29:59;13.20;99.90
1678;DHT22;6034;46.864;15.216;2023-05-10T08:32:26;13.20;99.90
1678;DHT22;6034;46.864;15.216;2023-05-10T08:34:55;13.00;99.90
1678;DHT22;6034;46.864;15.216;2023-05-10T08:37:22;13.20;99.90
1678;DHT22;6034;46.864;15.216;2023-05-10T08:39:49;13.50;99.90
1678;DHT22;6034;46.864;15.216;2023-05-10T08:42:18;13.60;99.90
1678;DHT22;6034;46.864;15.216;2023-05-10T08:44:46;13.70;99.90
1678;DHT22;6034;46.864;15.216;2023-05-10T08:47:15;13.70;99.90
1678;DHT22;6034;46.864;15.216;2023-05-10T08:49:43;13.80;99.90
1678;DHT22;6034;46.864;15.216;2023-05-10T08:52:12;13.90;99.90
1678;DHT22;6034;46.864;15.216;2023-05-10T08:54:40;13.90;99.90
1678;DHT22;6034;46.864;15.216;2023-05-10T08:57:07;13.80;99.90
1678;DHT22;6034;46.864;15.216;2023-05-10T08:59:34;13.90;99.90
1678;DHT22;6034;46.864;15.216;2023-05-10T09:02:04;14.10;99.90
1678;DHT22;6034;46.864;15.216;2023-05-10T09:04:31;14.10;99.90
1678;DHT22;6034;46.864;15.216;2023-05-10T09:06:58;14.30;99.90
1678;DHT22;6034;46.864;15.216;2023-05-10T09:09:27;14.30;99.90
1678;DHT22;6034;46.864;15.216;2023-05-10T09:11:54;14.40;99.90
1678;DHT22;6034;46.864;15.216;2023-05-10T09:14:21;14.50;99.90
1678;DHT22;6034;46.864;15.216;2023-05-10T09:16:49;14.60;99.90
1678;DHT22;6034;46.864;15.216;2023-05-10T09:19:16;14.70;99.90
1678;DHT22;6034;46.864;15.216;2023-05-10T09:21:43;14.40;99.90
1678;DHT22;6034;46.864;15.216;2023-05-10T09:24:10;14.50;99.90
1678;DHT22;6034;46.864;15.216;2023-05-10T09:26:46;14.70;99.90
1678;DHT22;6034;46.864;15.216;2023-05-10T09:29:14;14.70;99.90
1678;DHT22;6034;46.864;15.216;2023-05-10T09:31:45;14.80;99.90
1678;DHT22;6034;46.864;15.216;2023-05-10T09:34:15;14.50;99.90
1678;DHT22;6034;46.864;15.216;2023-05-10T09:36:52;14.60;99.90
1678;DHT22;6034;46.864;15.216;2023-05-10T09:39:20;14.20;99.90
1678;DHT22;6034;46.864;15.216;2023-05-10T09:41:48;14.30;99.90
1678;DHT22;6034;46.864;15.216;2023-05-10T09:44:18;14.30;99.90
1678;DHT22;6034;46.864;15.216;2023-05-10T09:46:49;14.60;99.90
1678;DHT22;6034;46.864;15.216;2023-05-10T09:49:18;14.60;99.90
1678;DHT22;6034;46.864;15.216;2023-05-10T09:51:45;14.70;99.90
1678;DHT22;6034;46.864;15.216;2023-05-10T09:54:12;14.70;99.90
1678;DHT22;6034;46.864;15.216;2023-05-10T09:56:39;14.80;99.90
1678;DHT22;6034;46.864;15.216;2023-05-10T09:59:09;14.60;99.90
1678;DHT22;6034;46.864;15.216;2023-05-10T10:01:36;14.80;99.90
1678;DHT22;6034;46.864;15.216;2023-05-10T10:04:04;15.30;99.90
1678;DHT22;6034;46.864;15.216;2023-05-10T10:06:35;15.60;99.90
1678;DHT22;6034;46.864;15.216;2023-05-10T10:09:02;15.70;99.90
1678;DHT22;6034;46.864;15.216;2023-05-10T10:11:29;15.70;99.90
1678;DHT22;6034;46.864;15.216;2023-05-10T10:13:56;15.40;99.90
1678;DHT22;6034;46.864;15.216;2023-05-10T10:16:24;15.00;99.90
1678;DHT22;6034;46.864;15.216;2023-05-10T10:18:51;15.10;99.90
1678;DHT22;6034;46.864;15.216;2023-05-10T10:21:19;15.60;99.90
1678;DHT22;6034;46.864;15.216;2023-05-10T10:23:46;15.80;99.90
1678;DHT22;6034;46.864;15.216;2023-05-10T10:26:13;15.70;99.90
1678;DHT22;6034;46.864;15.216;2023-05-10T10:28:43;16.00;99.90
1678;DHT22;6034;46.864;15.216;2023-05-10T10:31:16;15.80;99.90
1678;DHT22;6034;46.864;15.216;2023-05-10T10:33:55;16.00;99.90
1678;DHT22;6034;46.864;15.216;2023-05-10T10:36:24;16.00;99.90
1678;DHT22;6034;46.864;15.216;2023-05-10T10:38:59;16.20;99.90
1678;DHT22;6034;46.864;15.216;2023-05-10T10:41:30;16.30;99.90
1678;DHT22;6034;46.864;15.216;2023-05-10T10:49:26;16.50;99.90
1678;DHT22;6034;46.864;15.216;2023-05-10T10:54:38;16.60;99.90
1678;DHT22;6034;46.864;15.216;2023-05-10T10:57:14;16.60;99.90
1678;DHT22;6034;46.864;15.216;2023-05-10T10:59:41;16.60;99.90
1678;DHT22;6034;46.864;15.216;2023-05-10T11:02:09;16.60;99.90
1678;DHT22;6034;46.864;15.216;2023-05-10T11:04:44;16.80;99.90
1678;DHT22;6034;46.864;15.216;2023-05-10T11:07:15;16.90;99.90
1678;DHT22;6034;46.864;15.216;2023-05-10T11:09:42;16.40;99.90
1678;DHT22;6034;46.864;15.216;2023-05-10T11:12:09;16.30;99.90
1678;DHT22;6034;46.864;15.216;2023-05-10T11:14:36;16.40;99.90
1678;DHT22;6034;46.864;15.216;2023-05-10T11:17:17;16.00;99.90
1678;DHT22;6034;46.864;15.216;2023-05-10T11:22:50;16.70;99.90
1678;DHT22;6034;46.864;15.216;2023-05-10T11:25:17;16.80;99.90
1678;DHT22;6034;46.864;15.216;2023-05-10T11:27:47;16.90;99.90
1678;DHT22;6034;46.864;15.216;2023-05-10T11:30:14;16.70;99.90
1678;DHT22;6034;46.864;15.216;2023-05-10T11:32:41;16.80;99.90
1678;DHT22;6034;46.864;15.216;2023-05-10T11:35:08;16.90;99.90
1678;DHT22;6034;46.864;15.216;2023-05-10T11:37:36;16.90;99.90
1678;DHT22;6034;46.864;15.216;2023-05-10T11:40:08;16.80;99.90
1678;DHT22;6034;46.864;15.216;2023-05-10T11:42:36;16.90;99.90
1678;DHT22;6034;46.864;15.216;2023-05-10T11:45:04;17.10;99.90
1678;DHT22;6034;46.864;15.216;2023-05-10T11:47:31;17.20;99.90
1678;DHT22;6034;46.864;15.216;2023-05-10T11:49:58;17.30;99.90
1678;DHT22;6034;46.864;15.216;2023-05-10T11:52:25;17.40;99.90
1678;DHT22;6034;46.864;15.216;2023-05-10T11:54:52;17.50;99.90
1678;DHT22;6034;46.864;15.216;2023-05-10T11:57:26;17.60;99.90
1678;DHT22;6034;46.864;15.216;2023-05-10T11:59:53;17.40;99.90
1678;DHT22;6034;46.864;15.216;2023-05-10T12:02:21;17.10;99.90
1678;DHT22;6034;46.864;15.216;2023-05-10T12:04:47;17.30;99.90
1678;DHT22;6034;46.864;15.216;2023-05-10T12:07:15;17.10;99.90
1678;DHT22;6034;46.864;15.216;2023-05-10T12:09:42;17.00;99.90
1678;DHT22;6034;46.864;15.216;2023-05-10T12:12:10;17.10;99.90
1678;DHT22;6034;46.864;15.216;2023-05-10T12:14:38;16.40;99.90
1678;DHT22;6034;46.864;15.216;2023-05-10T12:17:05;16.00;99.90
1678;DHT22;6034;46.864;15.216;2023-05-10T12:19:36;16.10;99.90
1678;DHT22;6034;46.864;15.216;2023-05-10T12:22:04;16.40;99.90
1678;DHT22;6034;46.864;15.216;2023-05-10T12:24:33;16.60;99.90
1678;DHT22;6034;46.864;15.216;2023-05-10T12:27:04;16.70;99.90
1678;DHT22;6034;46.864;15.216;2023-05-10T12:29:31;16.60;99.90
1678;DHT22;6034;46.864;15.216;2023-05-10T12:31:59;16.70;99.90
1678;DHT22;6034;46.864;15.216;2023-05-10T12:34:29;16.40;99.90
1678;DHT22;6034;46.864;15.216;2023-05-10T12:36:56;16.40;99.90
1678;DHT22;6034;46.864;15.216;2023-05-10T12:39:23;16.60;99.90
1678;DHT22;6034;46.864;15.216;2023-05-10T12:41:50;16.40;99.90
1678;DHT22;6034;46.864;15.216;2023-05-10T12:44:17;16.00;99.60
1678;DHT22;6034;46.864;15.216;2023-05-10T12:46:44;16.30;99.90
1678;DHT22;6034;46.864;15.216;2023-05-10T12:49:12;16.50;99.90
1678;DHT22;6034;46.864;15.216;2023-05-10T12:51:39;16.70;99.90
1678;DHT22;6034;46.864;15.216;2023-05-10T12:54:06;16.80;99.90
1678;DHT22;6034;46.864;15.216;2023-05-10T12:56:33;16.70;99.90
1678;DHT22;6034;46.864;15.216;2023-05-10T12:59:00;16.60;99.90
1678;DHT22;6034;46.864;15.216;2023-05-10T13:01:27;16.90;99.90
1678;DHT22;6034;46.864;15.216;2023-05-10T13:03:54;17.00;99.90
1678;DHT22;6034;46.864;15.216;2023-05-10T13:06:23;17.00;99.90
1678;DHT22;6034;46.864;15.216;2023-05-10T13:08:49;17.10;99.90
1678;DHT22;6034;46.864;15.216;2023-05-10T13:11:17;17.00;99.90
1678;DHT22;6034;46.864;15.216;2023-05-10T13:13:45;17.10;99.90
1678;DHT22;6034;46.864;15.216;2023-05-10T13:16:12;17.00;99.90
1678;DHT22;6034;46.864;15.216;2023-05-10T13:18:39;17.10;99.90
1678;DHT22;6034;46.864;15.216;2023-05-10T13:21:06;17.10;99.90
1678;DHT22;6034;46.864;15.216;2023-05-10T13:23:34;17.20;99.90
1678;DHT22;6034;46.864;15.216;2023-05-10T13:26:01;17.10;99.90
1678;DHT22;6034;46.864;15.216;2023-05-10T13:28:28;17.10;99.90
1678;DHT22;6034;46.864;15.216;2023-05-10T13:30:55;17.20;99.90
1678;DHT22;6034;46.864;15.216;2023-05-10T13:33:22;17.20;99.90
1678;DHT22;6034;46.864;15.216;2023-05-10T13:35:49;17.20;99.90
1678;DHT22;6034;46.864;15.216;2023-05-10T13:38:16;17.10;99.90
1678;DHT22;6034;46.864;15.216;2023-05-10T13:40:45;17.10;99.90
1678;DHT22;6034;46.864;15.216;2023-05-10T13:43:11;17.00;99.90
1678;DHT22;6034;46.864;15.216;2023-05-10T13:45:38;17.00;99.90
1678;DHT22;6034;46.864;15.216;2023-05-10T13:48:06;17.20;99.90
1678;DHT22;6034;46.864;15.216;2023-05-10T13:50:32;17.20;99.90
1678;DHT22;6034;46.864;15.216;2023-05-10T13:52:59;17.10;99.90
1678;DHT22;6034;46.864;15.216;2023-05-10T13:55:26;17.00;99.90
1678;DHT22;6034;46.864;15.216;2023-05-10T13:57:55;17.10;99.90
1678;DHT22;6034;46.864;15.216;2023-05-10T14:00:23;17.20;99.90
1678;DHT22;6034;46.864;15.216;2023-05-10T14:02:50;17.20;99.90
1678;DHT22;6034;46.864;15.216;2023-05-10T14:05:17;17.30;99.90
1678;DHT22;6034;46.864;15.216;2023-05-10T14:07:44;17.20;99.90
1678;DHT22;6034;46.864;15.216;2023-05-10T14:10:11;17.10;99.90
1678;DHT22;6034;46.864;15.216;2023-05-10T14:12:38;17.10;99.90
1678;DHT22;6034;46.864;15.216;2023-05-10T14:15:07;17.00;99.90
1678;DHT22;6034;46.864;15.216;2023-05-10T14:17:35;17.00;99.90
1678;DHT22;6034;46.864;15.216;2023-05-10T14:20:03;17.10;99.90
1678;DHT22;6034;46.864;15.216;2023-05-10T14:22:30;17.10;99.90
1678;DHT22;6034;46.864;15.216;2023-05-10T14:24:57;17.20;99.90
1678;DHT22;6034;46.864;15.216;2023-05-10T14:27:25;17.20;99.90
1678;DHT22;6034;46.864;15.216;2023-05-10T14:29:52;17.20;99.90
1678;DHT22;6034;46.864;15.216;2023-05-10T14:32:20;17.20;99.90
1678;DHT22;6034;46.864;15.216;2023-05-10T14:34:47;17.30;99.90
1678;DHT22;6034;46.864;15.216;2023-05-10T14:37:14;17.30;99.90
1678;DHT22;6034;46.864;15.216;2023-05-10T14:39:41;17.20;99.90
1678;DHT22;6034;46.864;15.216;2023-05-10T14:42:08;17.30;99.90
1678;DHT22;6034;46.864;15.216;2023-05-10T14:44:35;17.30;99.90
1678;DHT22;6034;46.864;15.216;2023-05-10T14:47:02;17.30;99.90
1678;DHT22;6034;46.864;15.216;2023-05-10T14:49:31;17.30;99.90
1678;DHT22;6034;46.864;15.216;2023-05-10T14:51:57;17.40;99.90
1678;DHT22;6034;46.864;15.216;2023-05-10T14:54:24;17.40;99.90
1678;DHT22;6034;46.864;15.216;2023-05-10T14:56:51;17.30;99.90
1678;DHT22;6034;46.864;15.216;2023-05-10T14:59:18;17.30;99.90
1678;DHT22;6034;46.864;15.216;2023-05-10T15:01:45;17.10;99.90
1678;DHT22;6034;46.864;15.216;2023-05-10T15:04:12;17.20;99.90
1678;DHT22;6034;46.864;15.216;2023-05-10T15:06:42;17.10;99.90
1678;DHT22;6034;46.864;15.216;2023-05-10T15:09:09;17.00;99.90
1678;DHT22;6034;46.864;15.216;2023-05-10T15:11:36;17.10;99.90
1678;DHT22;6034;46.864;15.216;2023-05-10T15:14:03;17.20;99.90
1678;DHT22;6034;46.864;15.216;2023-05-10T15:16:31;17.20;99.90
1678;DHT22;6034;46.864;15.216;2023-05-10T15:18:58;17.30;99.90
1678;DHT22;6034;46.864;15.216;2023-05-10T15:21:25;17.30;99.90
1678;DHT22;6034;46.864;15.216;2023-05-10T15:24:01;17.30;99.90
1678;DHT22;6034;46.864;15.216;2023-05-10T15:26:28;17.20;99.90
1678;DHT22;6034;46.864;15.216;2023-05-10T15:28:55;17.10;99.90
1678;DHT22;6034;46.864;15.216;2023-05-10T15:31:22;17.10;99.90
1678;DHT22;6034;46.864;15.216;2023-05-10T15:33:49;17.00;99.90
1678;DHT22;6034;46.864;15.216;2023-05-10T15:36:16;17.00;99.90
1678;DHT22;6034;46.864;15.216;2023-05-10T15:38:43;17.00;99.90
1678;DHT22;6034;46.864;15.216;2023-05-10T15:41:12;17.10;99.90
1678;DHT22;6034;46.864;15.216;2023-05-10T15:43:39;17.00;99.90
1678;DHT22;6034;46.864;15.216;2023-05-10T15:46:06;17.00;99.90
1678;DHT22;6034;46.864;15.216;2023-05-10T15:48:33;17.10;99.90
1678;DHT22;6034;46.864;15.216;2023-05-10T15:50:59;17.10;99.90
1678;DHT22;6034;46.864;15.216;2023-05-10T15:53:27;17.00;99.90
1678;DHT22;6034;46.864;15.216;2023-05-10T15:55:54;17.00;99.90
1678;DHT22;6034;46.864;15.216;2023-05-10T15:58:22;17.00;99.90
1678;DHT22;6034;46.864;15.216;2023-05-10T16:00:49;17.00;99.90
1678;DHT22;6034;46.864;15.216;2023-05-10T16:03:16;17.00;99.90
1678;DHT22;6034;46.864;15.216;2023-05-10T16:05:43;16.90;99.90
1678;DHT22;6034;46.864;15.216;2023-05-10T16:08:10;16.90;99.90
1678;DHT22;6034;46.864;15.216;2023-05-10T16:10:37;16.80;99.90
1678;DHT22;6034;46.864;15.216;2023-05-10T16:13:05;16.80;99.90
1678;DHT22;6034;46.864;15.216;2023-05-10T16:15:33;16.80;99.90
1678;DHT22;6034;46.864;15.216;2023-05-10T16:18:00;16.70;99.90
1678;DHT22;6034;46.864;15.216;2023-05-10T16:20:27;16.80;99.90
1678;DHT22;6034;46.864;15.216;2023-05-10T16:22:55;16.70;99.90
1678;DHT22;6034;46.864;15.216;2023-05-10T16:25:22;16.60;99.90
1678;DHT22;6034;46.864;15.216;2023-05-10T16:27:49;16.60;99.90
1678;DHT22;6034;46.864;15.216;2023-05-10T16:30:16;16.50;99.90
1678;DHT22;6034;46.864;15.216;2023-05-10T16:32:45;16.50;99.90
1678;DHT22;6034;46.864;15.216;2023-05-10T16:35:12;16.50;99.90
1678;DHT22;6034;46.864;15.216;2023-05-10T16:37:39;16.40;99.90
1678;DHT22;6034;46.864;15.216;2023-05-10T16:40:07;16.40;99.90
1678;DHT22;6034;46.864;15.216;2023-05-10T16:42:34;16.40;99.90
1678;DHT22;6034;46.864;15.216;2023-05-10T16:45:02;16.40;99.90
1678;DHT22;6034;46.864;15.216;2023-05-10T16:47:32;16.40;99.90
1678;DHT22;6034;46.864;15.216;2023-05-10T16:50:00;16.30;99.90
1678;DHT22;6034;46.864;15.216;2023-05-10T16:52:27;16.40;99.90
1678;DHT22;6034;46.864;15.216;2023-05-10T16:54:54;16.40;99.90
1678;DHT22;6034;46.864;15.216;2023-05-10T16:57:21;16.40;99.90
1678;DHT22;6034;46.864;15.216;2023-05-10T16:59:49;16.30;99.90
1678;DHT22;6034;46.864;15.216;2023-05-10T17:02:18;16.40;99.90
1678;DHT22;6034;46.864;15.216;2023-05-10T17:04:45;16.30;99.90
1678;DHT22;6034;46.864;15.216;2023-05-10T17:07:14;16.30;99.90
1678;DHT22;6034;46.864;15.216;2023-05-10T17:09:43;16.20;99.90
1678;DHT22;6034;46.864;15.216;2023-05-10T17:12:10;16.10;99.90
1678;DHT22;6034;46.864;15.216;2023-05-10T17:14:37;16.10;99.90
1678;DHT22;6034;46.864;15.216;2023-05-10T17:17:04;16.10;99.90
1678;DHT22;6034;46.864;15.216;2023-05-10T17:19:31;16.10;99.90
1678;DHT22;6034;46.864;15.216;2023-05-10T17:21:58;16.10;99.90
1678;DHT22;6034;46.864;15.216;2023-05-10T17:24:27;16.10;99.90
1678;DHT22;6034;46.864;15.216;2023-05-10T17:26:55;16.10;99.90
1678;DHT22;6034;46.864;15.216;2023-05-10T17:29:24;16.00;99.90
1678;DHT22;6034;46.864;15.216;2023-05-10T17:31:51;16.00;99.90
1678;DHT22;6034;46.864;15.216;2023-05-10T17:34:19;16.00;99.90
1678;DHT22;6034;46.864;15.216;2023-05-10T17:36:46;15.90;99.90
1678;DHT22;6034;46.864;15.216;2023-05-10T17:39:13;15.90;99.90
1678;DHT22;6034;46.864;15.216;2023-05-10T17:41:41;15.90;99.90
1678;DHT22;6034;46.864;15.216;2023-05-10T17:44:08;15.80;99.90
1678;DHT22;6034;46.864;15.216;2023-05-10T17:46:37;15.80;99.90
1678;DHT22;6034;46.864;15.216;2023-05-10T17:49:04;15.80;99.90
1678;DHT22;6034;46.864;15.216;2023-05-10T17:51:31;15.80;99.90
1678;DHT22;6034;46.864;15.216;2023-05-10T17:53:58;15.70;99.90
1678;DHT22;6034;46.864;15.216;2023-05-10T17:56:25;15.70;99.90
1678;DHT22;6034;46.864;15.216;2023-05-10T17:58:54;15.60;99.90
1678;DHT22;6034;46.864;15.216;2023-05-10T18:01:21;15.60;99.90
1678;DHT22;6034;46.864;15.216;2023-05-10T18:03:48;15.60;99.90
1678;DHT22;6034;46.864;15.216;2023-05-10T18:06:16;15.60;99.90
1678;DHT22;6034;46.864;15.216;2023-05-10T18:08:43;15.60;99.90
1678;DHT22;6034;46.864;15.216;2023-05-10T18:11:10;15.50;99.90
1678;DHT22;6034;46.864;15.216;2023-05-10T18:13:37;15.60;99.90
1678;DHT22;6034;46.864;15.216;2023-05-10T18:16:06;15.60;99.90
1678;DHT22;6034;46.864;15.216;2023-05-10T18:18:37;15.50;99.90
1678;DHT22;6034;46.864;15.216;2023-05-10T18:21:04;15.50;99.90
1678;DHT22;6034;46.864;15.216;2023-05-10T18:23:31;15.50;99.90
1678;DHT22;6034;46.864;15.216;2023-05-10T18:25:57;15.40;99.90
1678;DHT22;6034;46.864;15.216;2023-05-10T18:28:24;15.40;99.90
1678;DHT22;6034;46.864;15.216;2023-05-10T18:30:51;15.40;99.90
1678;DHT22;6034;46.864;15.216;2023-05-10T18:33:20;15.40;99.90
1678;DHT22;6034;46.864;15.216;2023-05-10T18:35:47;15.40;99.90
1678;DHT22;6034;46.864;15.216;2023-05-10T18:38:15;15.30;99.90
1678;DHT22;6034;46.864;15.216;2023-05-10T18:40:41;15.40;99.90
1678;DHT22;6034;46.864;15.216;2023-05-10T18:43:08;15.40;99.90
1678;DHT22;6034;46.864;15.216;2023-05-10T18:45:36;15.40;99.90
1678;DHT22;6034;46.864;15.216;2023-05-10T18:48:03;15.40;99.90
1678;DHT22;6034;46.864;15.216;2023-05-10T18:50:32;15.30;99.90
1678;DHT22;6034;46.864;15.216;2023-05-10T18:52:59;15.20;99.90
1678;DHT22;6034;46.864;15.216;2023-05-10T18:55:26;15.20;99.90
1678;DHT22;6034;46.864;15.216;2023-05-10T18:57:54;15.20;99.90
1678;DHT22;6034;46.864;15.216;2023-05-10T19:00:21;15.20;99.90
1678;DHT22;6034;46.864;15.216;2023-05-10T19:02:48;15.10;99.90
1678;DHT22;6034;46.864;15.216;2023-05-10T19:05:15;15.00;99.90
1678;DHT22;6034;46.864;15.216;2023-05-10T19:07:43;15.00;99.90
1678;DHT22;6034;46.864;15.216;2023-05-10T19:10:10;14.90;99.90
1678;DHT22;6034;46.864;15.216;2023-05-10T19:12:38;14.80;99.90
1678;DHT22;6034;46.864;15.216;2023-05-10T19:15:06;14.90;99.90
1678;DHT22;6034;46.864;15.216;2023-05-10T19:17:33;14.80;99.90
1678;DHT22;6034;46.864;15.216;2023-05-10T19:20:02;14.80;99.90
1678;DHT22;6034;46.864;15.216;2023-05-10T19:22:30;14.90;99.90
1678;DHT22;6034;46.864;15.216;2023-05-10T19:24:58;14.80;99.90
1678;DHT22;6034;46.864;15.216;2023-05-10T19:27:26;14.80;99.90
1678;DHT22;6034;46.864;15.216;2023-05-10T19:29:53;14.80;99.90
1678;DHT22;6034;46.864;15.216;2023-05-10T19:32:20;14.80;99.90
1678;DHT22;6034;46.864;15.216;2023-05-10T19:34:47;14.80;99.90
1678;DHT22;6034;46.864;15.216;2023-05-10T19:37:14;14.80;99.90
1678;DHT22;6034;46.864;15.216;2023-05-10T19:39:42;14.80;99.90
1678;DHT22;6034;46.864;15.216;2023-05-10T19:42:10;14.70;99.90
1678;DHT22;6034;46.864;15.216;2023-05-10T19:44:37;14.70;99.90
1678;DHT22;6034;46.864;15.216;2023-05-10T19:47:04;14.60;99.90
1678;DHT22;6034;46.864;15.216;2023-05-10T19:49:33;14.70;99.90
1678;DHT22;6034;46.864;15.216;2023-05-10T19:52:02;14.60;99.90
1678;DHT22;6034;46.864;15.216;2023-05-10T19:54:29;14.60;99.90
1678;DHT22;6034;46.864;15.216;2023-05-10T19:56:56;14.60;99.90
1678;DHT22;6034;46.864;15.216;2023-05-10T19:59:24;14.60;99.90
1678;DHT22;6034;46.864;15.216;2023-05-10T20:01:51;14.50;99.90
1678;DHT22;6034;46.864;15.216;2023-05-10T20:04:18;14.50;99.90
1678;DHT22;6034;46.864;15.216;2023-05-10T20:06:45;14.50;99.90
1678;DHT22;6034;46.864;15.216;2023-05-10T20:09:12;14.40;99.90
1678;DHT22;6034;46.864;15.216;2023-05-10T20:11:40;14.40;99.90
1678;DHT22;6034;46.864;15.216;2023-05-10T20:14:07;14.40;99.90
1678;DHT22;6034;46.864;15.216;2023-05-10T20:16:36;14.30;99.90
1678;DHT22;6034;46.864;15.216;2023-05-10T20:19:02;14.30;99.90
1678;DHT22;6034;46.864;15.216;2023-05-10T20:21:29;14.30;99.90
1678;DHT22;6034;46.864;15.216;2023-05-10T20:23:58;14.20;99.90
1678;DHT22;6034;46.864;15.216;2023-05-10T20:26:25;14.20;99.90
1678;DHT22;6034;46.864;15.216;2023-05-10T20:28:51;14.20;99.90
1678;DHT22;6034;46.864;15.216;2023-05-10T20:31:18;14.20;99.90
1678;DHT22;6034;46.864;15.216;2023-05-10T20:33:47;14.20;99.90
1678;DHT22;6034;46.864;15.216;2023-05-10T20:36:13;14.20;99.90
1678;DHT22;6034;46.864;15.216;2023-05-10T20:38:41;14.20;99.90
1678;DHT22;6034;46.864;15.216;2023-05-10T20:41:08;14.10;99.90
1678;DHT22;6034;46.864;15.216;2023-05-10T20:43:35;14.10;99.90
1678;DHT22;6034;46.864;15.216;2023-05-10T20:46:02;14.00;99.90
1678;DHT22;6034;46.864;15.216;2023-05-10T20:48:30;14.00;99.90